sensor_id;sensor_type;location;lat;lon;timestamp;pressure;altitude;pressure_sealevel;temperature;humidity
71107;BME280;58763;47.982;11.516;2023-02-04T00:01:27;95058.78;;;2.50;95.57
71107;BME280;58763;47.982;11.516;2023-02-04T00:03:53;95065.94;;;2.50;95.48
71107;BME280;58763;47.982;11.516;2023-02-04T00:06:18;95067.19;;;2.54;95.17
71107;BME280;58763;47.982;11.516;2023-02-04T00:08:44;95059.59;;;2.51;95.43
71107;BME280;58763;47.982;11.516;2023-02-04T00:11:10;95058.56;;;2.52;95.34
71107;BME280;58763;47.982;11.516;2023-02-04T00:13:35;95060.47;;;2.38;95.80
71107;BME280;58763;47.982;11.516;2023-02-04T00:16:01;95057.00;;;2.38;95.96
71107;BME280;58763;47.982;11.516;2023-02-04T00:18:27;95055.00;;;2.33;96.00
71107;BME280;58763;47.982;11.516;2023-02-04T00:20:53;95043.94;;;2.23;96.06
71107;BME280;58763;47.982;11.516;2023-02-04T00:23:19;95045.78;;;2.23;96.54
71107;BME280;58763;47.982;11.516;2023-02-04T00:25:44;95058.31;;;2.22;96.35
71107;BME280;58763;47.982;11.516;2023-02-04T00:28:10;95049.28;;;2.23;96.39
71107;BME280;58763;47.982;11.516;2023-02-04T00:30:35;95051.13;;;2.23;96.58
71107;BME280;58763;47.982;11.516;2023-02-04T00:33:01;95047.25;;;2.19;96.51
71107;BME280;58763;47.982;11.516;2023-02-04T00:35:27;95034.94;;;2.18;96.83
71107;BME280;58763;47.982;11.516;2023-02-04T00:37:53;95035.97;;;2.17;96.63
71107;BME280;58763;47.982;11.516;2023-02-04T00:40:18;95037.00;;;2.16;96.89
71107;BME280;58763;47.982;11.516;2023-02-04T00:42:44;95043.56;;;2.13;97.12
71107;BME280;58763;47.982;11.516;2023-02-04T00:45:10;95059.81;;;2.12;96.46
71107;BME280;58763;47.982;11.516;2023-02-04T00:47:35;95050.97;;;2.11;96.54
71107;BME280;58763;47.982;11.516;2023-02-04T00:50:01;95058.59;;;2.07;97.16
71107;BME280;58763;47.982;11.516;2023-02-04T00:52:26;95061.88;;;2.09;96.84
71107;BME280;58763;47.982;11.516;2023-02-04T00:54:52;95066.78;;;2.06;96.99
71107;BME280;58763;47.982;11.516;2023-02-04T00:57:18;95054.06;;;2.08;96.58
71107;BME280;58763;47.982;11.516;2023-02-04T00:59:43;95067.03;;;2.04;96.42
71107;BME280;58763;47.982;11.516;2023-02-04T01:02:09;95056.34;;;2.04;96.54
71107;BME280;58763;47.982;11.516;2023-02-04T01:04:34;95054.09;;;2.01;96.59
71107;BME280;58763;47.982;11.516;2023-02-04T01:06:59;95064.16;;;1.99;96.50
71107;BME280;58763;47.982;11.516;2023-02-04T01:09:25;95067.44;;;2.01;96.82
71107;BME280;58763;47.982;11.516;2023-02-04T01:11:50;95076.47;;;2.00;96.18
71107;BME280;58763;47.982;11.516;2023-02-04T01:14:16;95058.81;;;1.99;96.65
71107;BME280;58763;47.982;11.516;2023-02-04T01:16:42;95063.56;;;1.97;97.33
71107;BME280;58763;47.982;11.516;2023-02-04T01:19:07;95066.59;;;2.01;97.50
71107;BME280;58763;47.982;11.516;2023-02-04T01:21:33;95054.31;;;2.00;97.52
71107;BME280;58763;47.982;11.516;2023-02-04T01:23:59;95049.81;;;2.00;97.54
71107;BME280;58763;47.982;11.516;2023-02-04T01:26:24;95068.63;;;2.05;97.74
71107;BME280;58763;47.982;11.516;2023-02-04T01:28:50;95047.31;;;2.05;97.72
71107;BME280;58763;47.982;11.516;2023-02-04T01:31:15;95064.53;;;2.09;97.42
71107;BME280;58763;47.982;11.516;2023-02-04T01:33:41;95064.09;;;2.13;96.88
71107;BME280;58763;47.982;11.516;2023-02-04T01:36:07;95078.28;;;2.06;97.37
71107;BME280;58763;47.982;11.516;2023-02-04T01:38:33;95077.28;;;2.07;97.36
71107;BME280;58763;47.982;11.516;2023-02-04T01:40:59;95088.56;;;2.09;97.65
71107;BME280;58763;47.982;11.516;2023-02-04T01:43:25;95085.88;;;2.09;97.42
71107;BME280;58763;47.982;11.516;2023-02-04T01:45:51;95091.41;;;2.15;97.90
71107;BME280;58763;47.982;11.516;2023-02-04T01:48:19;95093.03;;;2.16;98.00
71107;BME280;58763;47.982;11.516;2023-02-04T01:50:50;95095.69;;;2.16;98.55
71107;BME280;58763;47.982;11.516;2023-02-04T01:53:19;95118.88;;;2.15;99.24
71107;BME280;58763;47.982;11.516;2023-02-04T01:55:46;95142.44;;;2.25;99.40
71107;BME280;58763;47.982;11.516;2023-02-04T01:58:12;95165.84;;;2.29;99.45
71107;BME280;58763;47.982;11.516;2023-02-04T02:00:38;95159.22;;;2.38;99.22
71107;BME280;58763;47.982;11.516;2023-02-04T02:03:04;95151.44;;;2.37;99.23
71107;BME280;58763;47.982;11.516;2023-02-04T02:05:40;95140.13;;;2.41;99.22
71107;BME280;58763;47.982;11.516;2023-02-04T02:08:09;95152.22;;;2.44;98.82
71107;BME280;58763;47.982;11.516;2023-02-04T02:10:36;95166.19;;;2.46;98.55
71107;BME280;58763;47.982;11.516;2023-02-04T02:13:04;95151.84;;;2.40;97.80
71107;BME280;58763;47.982;11.516;2023-02-04T02:15:30;95160.31;;;2.31;97.52
71107;BME280;58763;47.982;11.516;2023-02-04T02:17:56;95168.94;;;2.26;97.81
71107;BME280;58763;47.982;11.516;2023-02-04T02:20:23;95159.28;;;2.25;98.74
71107;BME280;58763;47.982;11.516;2023-02-04T02:25:27;95169.53;;;2.35;97.99
71107;BME280;58763;47.982;11.516;2023-02-04T02:27:53;95172.59;;;2.32;97.70
71107;BME280;58763;47.982;11.516;2023-02-04T02:30:20;95180.41;;;2.27;97.59
71107;BME280;58763;47.982;11.516;2023-02-04T02:32:46;95184.72;;;2.34;97.79
71107;BME280;58763;47.982;11.516;2023-02-04T02:35:13;95195.59;;;2.33;97.07
71107;BME280;58763;47.982;11.516;2023-02-04T02:37:41;95177.13;;;2.31;96.58
71107;BME280;58763;47.982;11.516;2023-02-04T02:40:08;95190.06;;;2.28;96.33
71107;BME280;58763;47.982;11.516;2023-02-04T02:42:34;95193.81;;;2.14;97.51
71107;BME280;58763;47.982;11.516;2023-02-04T02:45:02;95190.91;;;2.15;97.98
71107;BME280;58763;47.982;11.516;2023-02-04T02:47:31;95189.91;;;2.16;97.71
71107;BME280;58763;47.982;11.516;2023-02-04T02:49:56;95186.03;;;2.12;97.60
71107;BME280;58763;47.982;11.516;2023-02-04T02:52:22;95184.59;;;2.09;97.42
71107;BME280;58763;47.982;11.516;2023-02-04T02:54:48;95197.06;;;2.16;97.51
71107;BME280;58763;47.982;11.516;2023-02-04T02:57:21;95200.00;;;2.07;98.22
71107;BME280;58763;47.982;11.516;2023-02-04T02:59:50;95206.75;;;2.03;98.14
71107;BME280;58763;47.982;11.516;2023-02-04T03:02:19;95209.84;;;2.00;98.82
71107;BME280;58763;47.982;11.516;2023-02-04T03:04:49;95210.66;;;2.01;99.38
71107;BME280;58763;47.982;11.516;2023-02-04T03:07:17;95215.56;;;2.10;99.63
71107;BME280;58763;47.982;11.516;2023-02-04T03:09:43;95219.84;;;2.18;100.00
71107;BME280;58763;47.982;11.516;2023-02-04T03:12:09;95218.81;;;2.26;99.44
71107;BME280;58763;47.982;11.516;2023-02-04T03:14:35;95208.94;;;2.33;98.80
71107;BME280;58763;47.982;11.516;2023-02-04T03:17:03;95229.88;;;2.42;98.10
71107;BME280;58763;47.982;11.516;2023-02-04T03:19:30;95221.63;;;2.44;98.36
71107;BME280;58763;47.982;11.516;2023-02-04T03:21:56;95229.41;;;2.45;97.71
71107;BME280;58763;47.982;11.516;2023-02-04T03:24:22;95241.78;;;2.40;97.09
71107;BME280;58763;47.982;11.516;2023-02-04T03:26:48;95244.66;;;2.32;96.39
71107;BME280;58763;47.982;11.516;2023-02-04T03:29:14;95239.38;;;2.12;96.84
71107;BME280;58763;47.982;11.516;2023-02-04T03:31:39;95235.88;;;2.12;96.84
71107;BME280;58763;47.982;11.516;2023-02-04T03:34:05;95238.78;;;2.10;96.06
71107;BME280;58763;47.982;11.516;2023-02-04T03:36:31;95234.66;;;2.01;96.01
71107;BME280;58763;47.982;11.516;2023-02-04T03:38:57;95241.03;;;1.93;96.82
71107;BME280;58763;47.982;11.516;2023-02-04T03:41:22;95241.03;;;1.93;96.83
71107;BME280;58763;47.982;11.516;2023-02-04T03:43:48;95243.06;;;1.91;97.07
71107;BME280;58763;47.982;11.516;2023-02-04T03:46:14;95246.38;;;1.93;96.79
71107;BME280;58763;47.982;11.516;2023-02-04T03:48:40;95251.28;;;1.96;96.79
71107;BME280;58763;47.982;11.516;2023-02-04T03:51:05;95246.38;;;1.93;96.54
71107;BME280;58763;47.982;11.516;2023-02-04T03:53:31;95245.75;;;1.91;96.41
71107;BME280;58763;47.982;11.516;2023-02-04T03:55:56;95261.75;;;1.91;96.92
71107;BME280;58763;47.982;11.516;2023-02-04T03:58:22;95259.06;;;1.91;96.88
71107;BME280;58763;47.982;11.516;2023-02-04T04:00:47;95265.25;;;1.85;96.75
71107;BME280;58763;47.982;11.516;2023-02-04T04:03:13;95260.53;;;1.87;96.32
71107;BME280;58763;47.982;11.516;2023-02-04T04:05:39;95267.69;;;1.87;96.27
71107;BME280;58763;47.982;11.516;2023-02-04T04:08:04;95270.16;;;1.88;95.94
71107;BME280;58763;47.982;11.516;2023-02-04T04:10:30;95275.91;;;1.92;95.79
71107;BME280;58763;47.982;11.516;2023-02-04T04:12:56;95279.00;;;1.89;95.85
71107;BME280;58763;47.982;11.516;2023-02-04T04:15:22;95268.31;;;1.82;96.40
71107;BME280;58763;47.982;11.516;2023-02-04T04:17:47;95276.75;;;1.79;96.49
71107;BME280;58763;47.982;11.516;2023-02-04T04:20:12;95283.09;;;1.78;96.40
71107;BME280;58763;47.982;11.516;2023-02-04T04:22:38;95276.94;;;1.84;96.55
71107;BME280;58763;47.982;11.516;2023-02-04T04:25:04;95277.97;;;1.83;96.75
71107;BME280;58763;47.982;11.516;2023-02-04T04:27:30;95281.66;;;1.89;96.57
71107;BME280;58763;47.982;11.516;2023-02-04T04:29:56;95276.50;;;1.94;96.57
71107;BME280;58763;47.982;11.516;2023-02-04T04:32:22;95295.59;;;1.97;96.22
71107;BME280;58763;47.982;11.516;2023-02-04T04:34:47;95299.28;;;1.96;96.33
71107;BME280;58763;47.982;11.516;2023-02-04T04:37:13;95298.66;;;2.01;96.02
71107;BME280;58763;47.982;11.516;2023-02-04T04:39:39;95303.22;;;2.00;96.17
71107;BME280;58763;47.982;11.516;2023-02-04T04:42:04;95300.31;;;2.15;95.59
71107;BME280;58763;47.982;11.516;2023-02-04T04:44:30;95305.84;;;2.14;94.51
71107;BME280;58763;47.982;11.516;2023-02-04T04:46:56;95317.53;;;2.13;94.16
71107;BME280;58763;47.982;11.516;2023-02-04T04:49:22;95310.38;;;2.13;94.12
71107;BME280;58763;47.982;11.516;2023-02-04T04:51:48;95315.69;;;2.13;93.79
71107;BME280;58763;47.982;11.516;2023-02-04T04:54:13;95317.56;;;2.06;94.16
71107;BME280;58763;47.982;11.516;2023-02-04T04:56:39;95328.44;;;2.11;94.00
71107;BME280;58763;47.982;11.516;2023-02-04T04:59:04;95327.81;;;2.02;93.63
71107;BME280;58763;47.982;11.516;2023-02-04T05:01:31;95327.41;;;2.05;93.54
71107;BME280;58763;47.982;11.516;2023-02-04T05:03:57;95325.97;;;2.09;92.79
71107;BME280;58763;47.982;11.516;2023-02-04T05:06:23;95331.31;;;2.09;92.61
71107;BME280;58763;47.982;11.516;2023-02-04T05:08:50;95332.53;;;2.14;92.32
71107;BME280;58763;47.982;11.516;2023-02-04T05:11:16;95333.16;;;2.16;92.17
71107;BME280;58763;47.982;11.516;2023-02-04T05:13:42;95331.50;;;2.08;92.05
71107;BME280;58763;47.982;11.516;2023-02-04T05:16:07;95338.06;;;2.05;92.37
71107;BME280;58763;47.982;11.516;2023-02-04T05:18:37;95332.13;;;2.17;92.22
71107;BME280;58763;47.982;11.516;2023-02-04T05:21:02;95342.81;;;2.17;91.35
71107;BME280;58763;47.982;11.516;2023-02-04T05:23:28;95346.06;;;1.99;92.44
71107;BME280;58763;47.982;11.516;2023-02-04T05:25:54;95352.44;;;1.98;91.96
71107;BME280;58763;47.982;11.516;2023-02-04T05:28:19;95347.31;;;1.96;92.28
71107;BME280;58763;47.982;11.516;2023-02-04T05:30:45;95358.19;;;2.01;92.12
71107;BME280;58763;47.982;11.516;2023-02-04T05:33:10;95361.25;;;1.98;92.58
71107;BME280;58763;47.982;11.516;2023-02-04T05:35:36;95367.84;;;2.02;92.29
71107;BME280;58763;47.982;11.516;2023-02-04T05:38:01;95378.50;;;2.02;91.98
71107;BME280;58763;47.982;11.516;2023-02-04T05:40:27;95374.19;;;2.01;92.14
71107;BME280;58763;47.982;11.516;2023-02-04T05:42:54;95379.72;;;2.06;91.86
71107;BME280;58763;47.982;11.516;2023-02-04T05:45:19;95376.84;;;2.08;91.06
71107;BME280;58763;47.982;11.516;2023-02-04T05:47:45;95380.75;;;1.99;90.84
71107;BME280;58763;47.982;11.516;2023-02-04T05:50:10;95377.25;;;1.98;91.30
71107;BME280;58763;47.982;11.516;2023-02-04T05:52:36;95387.53;;;2.01;91.52
71107;BME280;58763;47.982;11.516;2023-02-04T05:55:02;95398.19;;;1.88;92.02
71107;BME280;58763;47.982;11.516;2023-02-04T05:57:28;95401.47;;;1.84;92.58
71107;BME280;58763;47.982;11.516;2023-02-04T05:59:53;95413.75;;;1.85;93.16
71107;BME280;58763;47.982;11.516;2023-02-04T06:02:19;95418.69;;;1.88;92.72
71107;BME280;58763;47.982;11.516;2023-02-04T06:04:44;95420.13;;;1.77;93.40
71107;BME280;58763;47.982;11.516;2023-02-04T06:07:10;95425.63;;;1.76;93.65
71107;BME280;58763;47.982;11.516;2023-02-04T06:09:36;95426.69;;;1.94;93.83
71107;BME280;58763;47.982;11.516;2023-02-04T06:12:01;95436.34;;;1.95;92.25
71107;BME280;58763;47.982;11.516;2023-02-04T06:14:27;95442.72;;;1.94;92.42
71107;BME280;58763;47.982;11.516;2023-02-04T06:16:53;95444.53;;;1.94;92.53
71107;BME280;58763;47.982;11.516;2023-02-04T06:19:18;95451.31;;;1.96;92.07
71107;BME280;58763;47.982;11.516;2023-02-04T06:21:44;95444.16;;;2.03;91.25
71107;BME280;58763;47.982;11.516;2023-02-04T06:24:09;95441.09;;;1.93;90.91
71107;BME280;58763;47.982;11.516;2023-02-04T06:26:35;95447.03;;;2.08;90.69
71107;BME280;58763;47.982;11.516;2023-02-04T06:29:00;95456.94;;;2.15;89.85
71107;BME280;58763;47.982;11.516;2023-02-04T06:31:26;95453.19;;;1.96;90.04
71107;BME280;58763;47.982;11.516;2023-02-04T06:33:52;95460.72;;;1.79;90.79
71107;BME280;58763;47.982;11.516;2023-02-04T06:36:17;95456.00;;;1.75;91.01
71107;BME280;58763;47.982;11.516;2023-02-04T06:38:42;95465.00;;;1.74;90.60
71107;BME280;58763;47.982;11.516;2023-02-04T06:41:08;95459.19;;;1.57;90.91
71107;BME280;58763;47.982;11.516;2023-02-04T06:43:35;95463.72;;;1.57;90.98
71107;BME280;58763;47.982;11.516;2023-02-04T06:46:01;95460.25;;;1.56;90.86
71107;BME280;58763;47.982;11.516;2023-02-04T06:48:26;95464.50;;;1.51;91.08
71107;BME280;58763;47.982;11.516;2023-02-04T06:50:52;95463.09;;;1.61;90.64
71107;BME280;58763;47.982;11.516;2023-02-04T06:53:17;95478.91;;;1.56;90.45
71107;BME280;58763;47.982;11.516;2023-02-04T06:55:43;95473.22;;;1.72;90.13
71107;BME280;58763;47.982;11.516;2023-02-04T06:58:08;95476.72;;;1.79;89.74
71107;BME280;58763;47.982;11.516;2023-02-04T07:00:34;95477.75;;;1.78;89.03
71107;BME280;58763;47.982;11.516;2023-02-04T07:03:00;95485.88;;;1.64;89.04
71107;BME280;58763;47.982;11.516;2023-02-04T07:05:25;95487.09;;;1.61;89.41
71107;BME280;58763;47.982;11.516;2023-02-04T07:07:51;95490.53;;;1.49;89.61
71107;BME280;58763;47.982;11.516;2023-02-04T07:10:17;95496.13;;;1.60;89.20
71107;BME280;58763;47.982;11.516;2023-02-04T07:12:45;95499.41;;;1.62;88.79
71107;BME280;58763;47.982;11.516;2023-02-04T07:15:11;95500.63;;;1.53;89.53
71107;BME280;58763;47.982;11.516;2023-02-04T07:17:36;95498.72;;;1.47;89.32
71107;BME280;58763;47.982;11.516;2023-02-04T07:20:02;95500.59;;;1.47;89.55
71107;BME280;58763;47.982;11.516;2023-02-04T07:22:28;95508.81;;;1.52;89.39
71107;BME280;58763;47.982;11.516;2023-02-04T07:24:53;95518.09;;;1.62;89.02
71107;BME280;58763;47.982;11.516;2023-02-04T07:27:19;95508.28;;;1.69;88.98
71107;BME280;58763;47.982;11.516;2023-02-04T07:29:44;95507.72;;;1.87;88.60
71107;BME280;58763;47.982;11.516;2023-02-04T07:32:10;95497.84;;;1.81;87.32
71107;BME280;58763;47.982;11.516;2023-02-04T07:34:35;95513.84;;;1.74;87.30
71107;BME280;58763;47.982;11.516;2023-02-04T07:37:01;95518.47;;;1.59;87.71
71107;BME280;58763;47.982;11.516;2023-02-04T07:39:27;95519.78;;;1.70;87.34
71107;BME280;58763;47.982;11.516;2023-02-04T07:41:52;95528.97;;;1.67;87.67
71107;BME280;58763;47.982;11.516;2023-02-04T07:44:18;95531.88;;;1.72;87.87
71107;BME280;58763;47.982;11.516;2023-02-04T07:46:44;95535.53;;;1.65;87.81
71107;BME280;58763;47.982;11.516;2023-02-04T07:49:09;95533.47;;;1.67;87.85
71107;BME280;58763;47.982;11.516;2023-02-04T07:51:35;95537.13;;;1.59;88.02
71107;BME280;58763;47.982;11.516;2023-02-04T07:54:01;95535.41;;;1.45;88.82
71107;BME280;58763;47.982;11.516;2023-02-04T07:56:26;95538.06;;;1.45;88.89
71107;BME280;58763;47.982;11.516;2023-02-04T07:58:53;95536.81;;;1.34;89.07
71107;BME280;58763;47.982;11.516;2023-02-04T08:01:19;95545.81;;;1.33;89.17
71107;BME280;58763;47.982;11.516;2023-02-04T08:03:44;95541.56;;;1.46;88.81
71107;BME280;58763;47.982;11.516;2023-02-04T08:06:10;95549.78;;;1.44;88.49
71107;BME280;58763;47.982;11.516;2023-02-04T08:08:35;95550.69;;;1.64;87.72
71107;BME280;58763;47.982;11.516;2023-02-04T08:11:01;95547.88;;;1.72;87.54
71107;BME280;58763;47.982;11.516;2023-02-04T08:13:27;95546.47;;;1.83;87.44
71107;BME280;58763;47.982;11.516;2023-02-04T08:15:52;95546.97;;;1.99;86.57
71107;BME280;58763;47.982;11.516;2023-02-04T08:18:18;95544.63;;;1.77;87.18
71107;BME280;58763;47.982;11.516;2023-02-04T08:20:44;95556.13;;;1.77;87.62
71107;BME280;58763;47.982;11.516;2023-02-04T08:23:09;95570.66;;;1.75;88.42
71107;BME280;58763;47.982;11.516;2023-02-04T08:25:35;95567.66;;;1.91;87.73
71107;BME280;58763;47.982;11.516;2023-02-04T08:28:01;95565.16;;;1.89;87.43
71107;BME280;58763;47.982;11.516;2023-02-04T08:30:27;95576.03;;;1.81;86.89
71107;BME280;58763;47.982;11.516;2023-02-04T08:32:52;95573.38;;;1.88;87.19
71107;BME280;58763;47.982;11.516;2023-02-04T08:35:18;95577.72;;;1.95;87.13
71107;BME280;58763;47.982;11.516;2023-02-04T08:37:43;95582.09;;;2.09;86.45
71107;BME280;58763;47.982;11.516;2023-02-04T08:40:10;95588.66;;;2.07;86.03
71107;BME280;58763;47.982;11.516;2023-02-04T08:42:35;95591.09;;;2.02;86.38
71107;BME280;58763;47.982;11.516;2023-02-04T08:45:01;95587.38;;;1.96;87.42
71107;BME280;58763;47.982;11.516;2023-02-04T08:47:28;95585.75;;;2.02;87.24
71107;BME280;58763;47.982;11.516;2023-02-04T08:49:54;95583.31;;;2.00;86.89
71107;BME280;58763;47.982;11.516;2023-02-04T08:52:19;95586.97;;;1.99;88.09
71107;BME280;58763;47.982;11.516;2023-02-04T08:54:45;95582.50;;;2.13;87.69
71107;BME280;58763;47.982;11.516;2023-02-04T08:57:10;95584.34;;;2.13;87.60
71107;BME280;58763;47.982;11.516;2023-02-04T08:59:36;95581.91;;;2.18;87.61
71107;BME280;58763;47.982;11.516;2023-02-04T09:02:02;95580.09;;;2.25;87.49
71107;BME280;58763;47.982;11.516;2023-02-04T09:04:28;95579.22;;;2.11;87.41
71107;BME280;58763;47.982;11.516;2023-02-04T09:06:54;95581.50;;;2.14;88.06
71107;BME280;58763;47.982;11.516;2023-02-04T09:09:20;95589.28;;;2.16;87.41
71107;BME280;58763;47.982;11.516;2023-02-04T09:11:46;95586.88;;;2.27;87.44
71107;BME280;58763;47.982;11.516;2023-02-04T09:14:12;95596.16;;;2.38;87.10
71107;BME280;58763;47.982;11.516;2023-02-04T09:16:38;95589.38;;;2.42;86.64
71107;BME280;58763;47.982;11.516;2023-02-04T09:19:03;95601.34;;;2.59;86.46
71107;BME280;58763;47.982;11.516;2023-02-04T09:21:30;95601.34;;;2.59;86.69
71107;BME280;58763;47.982;11.516;2023-02-04T09:23:55;95603.59;;;2.55;86.12
71107;BME280;58763;47.982;11.516;2023-02-04T09:26:21;95613.66;;;2.60;86.51
71107;BME280;58763;47.982;11.516;2023-02-04T09:28:47;95604.22;;;2.64;85.78
71107;BME280;58763;47.982;11.516;2023-02-04T09:31:13;95608.34;;;2.66;86.49
71107;BME280;58763;47.982;11.516;2023-02-04T09:33:39;95615.16;;;2.82;85.43
71107;BME280;58763;47.982;11.516;2023-02-04T09:36:05;95606.09;;;2.70;86.42
71107;BME280;58763;47.982;11.516;2023-02-04T09:38:31;95615.78;;;2.77;85.17
71107;BME280;58763;47.982;11.516;2023-02-04T09:41:02;95616.63;;;2.91;86.20
71107;BME280;58763;47.982;11.516;2023-02-04T09:43:30;95614.78;;;2.92;85.68
71107;BME280;58763;47.982;11.516;2023-02-04T09:45:57;95618.06;;;3.07;84.39
71107;BME280;58763;47.982;11.516;2023-02-04T09:48:25;95633.47;;;2.92;84.07
71107;BME280;58763;47.982;11.516;2023-02-04T09:50:51;95642.34;;;3.05;84.00
71107;BME280;58763;47.982;11.516;2023-02-04T09:53:22;95639.66;;;3.05;84.51
71107;BME280;58763;47.982;11.516;2023-02-04T09:55:50;95647.28;;;3.34;83.96
71107;BME280;58763;47.982;11.516;2023-02-04T09:58:21;95646.66;;;3.26;83.95
71107;BME280;58763;47.982;11.516;2023-02-04T10:00:55;95657.34;;;3.39;83.70
71107;BME280;58763;47.982;11.516;2023-02-04T10:03:22;95661.28;;;3.49;82.39
71107;BME280;58763;47.982;11.516;2023-02-04T10:05:48;95651.38;;;3.63;80.82
71107;BME280;58763;47.982;11.516;2023-02-04T10:08:27;95645.19;;;3.69;81.33
71107;BME280;58763;47.982;11.516;2023-02-04T10:10:53;95640.06;;;3.74;80.90
71107;BME280;58763;47.982;11.516;2023-02-04T10:13:23;95639.59;;;3.97;79.98
71107;BME280;58763;47.982;11.516;2023-02-04T10:15:53;95645.16;;;3.95;78.82
71107;BME280;58763;47.982;11.516;2023-02-04T10:18:27;95650.94;;;3.99;78.61
71107;BME280;58763;47.982;11.516;2023-02-04T10:20:56;95648.03;;;4.07;78.19
71107;BME280;58763;47.982;11.516;2023-02-04T10:23:25;95654.81;;;4.09;78.15
71107;BME280;58763;47.982;11.516;2023-02-04T10:25:50;95645.13;;;4.15;77.15
71107;BME280;58763;47.982;11.516;2023-02-04T10:28:16;95649.66;;;4.14;77.78
71107;BME280;58763;47.982;11.516;2023-02-04T10:30:42;95649.25;;;4.11;77.04
71107;BME280;58763;47.982;11.516;2023-02-04T10:33:21;95650.47;;;4.08;76.16
71107;BME280;58763;47.982;11.516;2023-02-04T10:35:50;95644.31;;;4.08;76.75
71107;BME280;58763;47.982;11.516;2023-02-04T10:38:17;95654.63;;;4.04;77.84
71107;BME280;58763;47.982;11.516;2023-02-04T10:40:42;95644.31;;;4.08;77.84
71107;BME280;58763;47.982;11.516;2023-02-04T10:45:44;95629.06;;;4.15;77.43
71107;BME280;58763;47.982;11.516;2023-02-04T10:48:18;95638.09;;;4.20;77.18
71107;BME280;58763;47.982;11.516;2023-02-04T10:50:45;95636.41;;;4.33;76.88
71107;BME280;58763;47.982;11.516;2023-02-04T10:53:15;95633.50;;;4.34;76.93
71107;BME280;58763;47.982;11.516;2023-02-04T10:55:59;95640.53;;;4.35;75.65
71107;BME280;58763;47.982;11.516;2023-02-04T10:58:28;95636.84;;;4.23;75.32
71107;BME280;58763;47.982;11.516;2023-02-04T11:00:53;95638.56;;;4.04;75.55
71107;BME280;58763;47.982;11.516;2023-02-04T11:03:24;95643.47;;;4.14;75.43
71107;BME280;58763;47.982;11.516;2023-02-04T11:05:50;95644.50;;;4.19;75.94
71107;BME280;58763;47.982;11.516;2023-02-04T11:08:19;95635.59;;;4.26;75.77
71107;BME280;58763;47.982;11.516;2023-02-04T11:10:49;95633.50;;;4.41;76.25
71107;BME280;58763;47.982;11.516;2023-02-04T11:13:26;95634.72;;;4.45;75.90
71107;BME280;58763;47.982;11.516;2023-02-04T11:22:02;95634.84;;;4.63;75.62
71107;BME280;58763;47.982;11.516;2023-02-04T11:39:37;95638.63;;;4.86;74.97
71107;BME280;58763;47.982;11.516;2023-02-04T11:42:04;95637.34;;;4.96;74.96
71107;BME280;58763;47.982;11.516;2023-02-04T11:44:31;95635.69;;;5.01;74.99
71107;BME280;58763;47.982;11.516;2023-02-04T11:46:57;95638.47;;;5.13;73.53
71107;BME280;58763;47.982;11.516;2023-02-04T11:49:26;95641.63;;;5.03;74.98
71107;BME280;58763;47.982;11.516;2023-02-04T11:52:05;95641.88;;;5.02;75.57
71107;BME280;58763;47.982;11.516;2023-02-04T11:54:33;95633.84;;;4.95;75.45
71107;BME280;58763;47.982;11.516;2023-02-04T11:56:59;95644.03;;;4.80;75.99
71107;BME280;58763;47.982;11.516;2023-02-04T11:59:25;95641.25;;;4.62;74.97
71107;BME280;58763;47.982;11.516;2023-02-04T12:02:03;95641.44;;;4.60;75.94
71107;BME280;58763;47.982;11.516;2023-02-04T12:04:29;95645.09;;;4.72;76.71
71107;BME280;58763;47.982;11.516;2023-02-04T12:07:00;95632.13;;;4.69;76.93
71107;BME280;58763;47.982;11.516;2023-02-04T12:09:30;95635.91;;;4.62;76.95
71107;BME280;58763;47.982;11.516;2023-02-04T12:11:58;95632.56;;;4.66;76.72
71107;BME280;58763;47.982;11.516;2023-02-04T12:14:30;95631.97;;;4.64;76.26
71107;BME280;58763;47.982;11.516;2023-02-04T12:16:56;95638.69;;;4.80;76.78
71107;BME280;58763;47.982;11.516;2023-02-04T12:19:22;95631.13;;;5.02;77.15
71107;BME280;58763;47.982;11.516;2023-02-04T12:21:48;95631.59;;;5.23;77.29
71107;BME280;58763;47.982;11.516;2023-02-04T12:24:13;95630.69;;;5.36;73.87
71107;BME280;58763;47.982;11.516;2023-02-04T12:26:39;95630.13;;;5.52;74.82
71107;BME280;58763;47.982;11.516;2023-02-04T12:29:05;95644.38;;;5.52;73.89
71107;BME280;58763;47.982;11.516;2023-02-04T12:31:31;95635.06;;;5.55;73.04
71107;BME280;58763;47.982;11.516;2023-02-04T12:33:57;95641.75;;;5.46;70.59
71107;BME280;58763;47.982;11.516;2023-02-04T12:36:23;95644.44;;;5.15;71.19
71107;BME280;58763;47.982;11.516;2023-02-04T12:38:51;95641.88;;;5.02;71.88
71107;BME280;58763;47.982;11.516;2023-02-04T12:41:16;95638.19;;;4.96;72.44
71107;BME280;58763;47.982;11.516;2023-02-04T12:43:44;95647.28;;;4.88;71.93
71107;BME280;58763;47.982;11.516;2023-02-04T12:46:10;95641.50;;;4.92;71.74
71107;BME280;58763;47.982;11.516;2023-02-04T12:48:35;95640.63;;;4.98;72.32
71107;BME280;58763;47.982;11.516;2023-02-04T12:51:06;95636.94;;;4.99;72.34
71107;BME280;58763;47.982;11.516;2023-02-04T12:53:32;95631.91;;;5.09;72.64
71107;BME280;58763;47.982;11.516;2023-02-04T12:55:57;95634.94;;;5.19;71.80
71107;BME280;58763;47.982;11.516;2023-02-04T12:58:23;95635.31;;;5.22;72.04
71107;BME280;58763;47.982;11.516;2023-02-04T13:00:48;95635.81;;;5.13;70.94
71107;BME280;58763;47.982;11.516;2023-02-04T13:03:14;95635.63;;;5.08;70.32
71107;BME280;58763;47.982;11.516;2023-02-04T13:05:41;95637.72;;;5.06;70.46
71107;BME280;58763;47.982;11.516;2023-02-04T13:08:07;95634.06;;;4.94;68.77
71107;BME280;58763;47.982;11.516;2023-02-04T13:10:33;95627.03;;;4.99;69.95
71107;BME280;58763;47.982;11.516;2023-02-04T13:12:58;95639.34;;;5.07;69.41
71107;BME280;58763;47.982;11.516;2023-02-04T13:15:24;95638.91;;;5.10;69.11
71107;BME280;58763;47.982;11.516;2023-02-04T13:17:50;95638.84;;;5.16;69.59
71107;BME280;58763;47.982;11.516;2023-02-04T13:20:16;95638.66;;;5.18;69.33
71107;BME280;58763;47.982;11.516;2023-02-04T13:22:41;95639.34;;;5.07;67.61